Terminal Aerodrome Forecast
Issued by NWS Cleveland, OH

Home | Current Version | Previous Version | Graphics & Text | Print | Product List | Glossary On
Versions: 1 2 3 4 5 6 7 8 9 10 11 12 13 14 15 16 17 18 19 20 21
000
FTUS41 KCLE 131700
TAFYNG
TAF
KYNG 131731Z 1318/1418 21015G25KT P6SM BKN050
     FM132300 20014KT P6SM SCT050 BKN200 WS010/21040KT
     FM141000 19015G22KT P6SM SCT050 BKN150
     FM141700 20018G28KT 5SM -SHRA VCTS BKN035CB OVC090=

USA.gov is the U.S. government's official web portal to all federal, state and local government web resources and services.